createdAt,value
2019-04-28T00:01:28.147Z,7.50
2019-04-28T00:03:56.731Z,7.60
2019-04-28T00:06:25.321Z,7.50
2019-04-28T00:08:53.845Z,7.50
2019-04-28T00:11:22.358Z,7.50
2019-04-28T00:13:51.825Z,7.40
2019-04-28T00:16:22.943Z,7.40
2019-04-28T00:18:51.791Z,7.40
2019-04-28T00:21:21.890Z,7.40
2019-04-28T00:23:54.715Z,7.50
2019-04-28T00:26:37.066Z,7.40
2019-04-28T00:29:05.573Z,7.40
2019-04-28T00:31:34.098Z,7.40
2019-04-28T00:34:02.723Z,7.40
2019-04-28T00:36:31.589Z,7.40
2019-04-28T00:39:01.555Z,7.40
2019-04-28T00:41:30.879Z,7.40
2019-04-28T00:43:59.571Z,7.40
2019-04-28T00:46:35.370Z,7.40
2019-04-28T00:49:03.996Z,7.40
2019-04-28T00:51:32.583Z,7.40
2019-04-28T00:54:01.451Z,7.50
2019-04-28T00:56:31.721Z,7.40
2019-04-28T00:59:01.621Z,7.50
2019-04-28T01:01:43.759Z,7.40
2019-04-28T01:04:12.385Z,7.40
2019-04-28T01:06:42.890Z,7.40
2019-04-28T01:09:11.862Z,7.40
2019-04-28T01:11:41.457Z,7.40
2019-04-28T01:14:11.441Z,7.50
2019-04-28T01:16:49.798Z,7.50
2019-04-28T01:19:22.318Z,7.50
2019-04-28T01:22:10.626Z,7.50
2019-04-28T01:24:40.242Z,7.40
2019-04-28T01:27:25.472Z,7.40
2019-04-28T01:30:05.466Z,7.30
2019-04-28T01:32:30.190Z,7.40
2019-04-28T01:34:59.844Z,7.40
2019-04-28T01:37:29.591Z,7.40
2019-04-28T01:39:59.665Z,7.40
2019-04-28T01:42:30.094Z,7.40
2019-04-28T01:45:00.490Z,7.40
2019-04-28T01:47:30.411Z,7.40
2019-04-28T01:50:01.771Z,7.40
2019-04-28T01:52:30.321Z,7.40
2019-04-28T01:55:00.480Z,7.40
2019-04-28T01:57:29.875Z,7.40
2019-04-28T01:59:59.762Z,7.40
2019-04-28T02:02:29.980Z,7.50
2019-04-28T02:05:19.666Z,7.40
2019-04-28T02:07:50.479Z,7.40
2019-04-28T02:10:21.518Z,7.40
2019-04-28T02:12:50.343Z,7.40
2019-04-28T02:15:20.184Z,7.40
2019-04-28T02:17:50.022Z,7.40
2019-04-28T02:20:20.515Z,7.40
2019-04-28T02:22:53.789Z,7.40
2019-04-28T02:25:22.268Z,7.50
2019-04-28T02:27:50.758Z,7.40
2019-04-28T02:30:20.913Z,7.40
2019-04-28T02:32:51.887Z,7.40
2019-04-28T02:35:21.358Z,7.30
2019-04-28T02:37:50.540Z,7.30
2019-04-28T02:40:20.685Z,7.30
2019-04-28T02:42:52.136Z,7.30
2019-04-28T02:45:21.730Z,7.30
2019-04-28T02:47:52.485Z,7.20
2019-04-28T02:50:25.337Z,7.10
2019-04-28T02:53:01.910Z,7.20
2019-04-28T02:55:31.805Z,7.20
2019-04-28T02:58:01.462Z,7.10
2019-04-28T03:00:31.679Z,7.10
2019-04-28T03:03:01.572Z,7.10
2019-04-28T03:05:33.309Z,7.00
2019-04-28T03:08:01.243Z,7.00
2019-04-28T03:10:30.997Z,7.00
2019-04-28T03:13:01.046Z,7.00
2019-04-28T03:15:30.525Z,6.90
2019-04-28T03:18:01.933Z,7.00
2019-04-28T03:20:30.583Z,6.90
2019-04-28T03:23:00.885Z,6.90
2019-04-28T03:25:47.197Z,7.00
2019-04-28T03:28:33.657Z,7.00
2019-04-28T03:31:34.325Z,7.00
2019-04-28T03:33:41.367Z,7.00
2019-04-28T03:36:08.281Z,7.10
2019-04-28T03:38:35.027Z,7.10
2019-04-28T03:41:03.780Z,7.10
2019-04-28T03:43:32.383Z,7.10
2019-04-28T03:46:03.598Z,7.10
2019-04-28T03:48:33.735Z,7.20
2019-04-28T03:51:02.539Z,7.20
2019-04-28T03:53:31.502Z,7.20
2019-04-28T03:56:01.563Z,7.20
2019-04-28T03:58:31.191Z,7.20
2019-04-28T04:01:02.789Z,7.20
2019-04-28T04:03:30.574Z,7.20
2019-04-28T04:06:00.748Z,7.20
2019-04-28T04:08:30.930Z,7.20
2019-04-28T04:11:04.553Z,7.20
2019-04-28T04:13:34.757Z,7.20
2019-04-28T04:16:20.730Z,7.10
2019-04-28T04:18:53.623Z,7.10
2019-04-28T04:21:21.619Z,7.20
2019-04-28T04:23:50.957Z,7.20
2019-04-28T04:26:21.375Z,7.20
2019-04-28T04:28:51.440Z,7.20
2019-04-28T04:31:20.170Z,7.20
2019-04-28T04:33:50.547Z,7.20
2019-04-28T04:36:21.030Z,7.30
2019-04-28T04:38:51.282Z,7.30
2019-04-28T04:41:20.219Z,7.40
2019-04-28T04:43:51.255Z,7.40
2019-04-28T04:46:22.011Z,7.40
2019-04-28T04:48:51.270Z,7.50
2019-04-28T04:51:21.346Z,7.50
2019-04-28T04:53:51.303Z,7.50
2019-04-28T04:56:21.311Z,7.60
2019-04-28T04:58:50.590Z,7.60
2019-04-28T05:01:21.042Z,7.60
2019-04-28T05:04:03.066Z,7.70
2019-04-28T05:06:34.945Z,7.70
2019-04-28T05:09:10.139Z,7.80
2019-04-28T05:11:39.999Z,7.80
2019-04-28T05:14:11.554Z,7.80
2019-04-28T05:16:39.792Z,7.90
2019-04-28T05:19:10.035Z,8.00
2019-04-28T05:21:40.436Z,8.00
2019-04-28T05:24:26.650Z,8.10
2019-04-28T05:26:55.212Z,8.10
2019-04-28T05:29:26.747Z,8.10
2019-04-28T05:31:54.820Z,8.20
2019-04-28T05:34:24.508Z,8.10
2019-04-28T05:36:53.305Z,8.10
2019-04-28T05:39:21.808Z,8.10
2019-04-28T05:41:51.885Z,8.20
2019-04-28T05:44:20.492Z,8.30
2019-04-28T05:46:50.622Z,8.40
2019-04-28T05:49:23.767Z,8.50
2019-04-28T05:52:01.363Z,8.60
2019-04-28T05:54:34.294Z,8.60
2019-04-28T05:57:04.419Z,8.60
2019-04-28T05:59:52.429Z,8.50
2019-04-28T06:02:22.562Z,8.60
2019-04-28T06:04:51.061Z,8.60
2019-04-28T06:07:23.735Z,8.60
2019-04-28T06:09:53.851Z,8.70
2019-04-28T06:12:22.406Z,8.60
2019-04-28T06:14:50.895Z,8.70
2019-04-28T06:17:32.548Z,8.70
2019-04-28T06:20:01.110Z,8.70
2019-04-28T06:22:29.639Z,8.70
2019-04-28T06:24:58.196Z,8.70
2019-04-28T06:27:26.772Z,8.80
2019-04-28T06:29:55.213Z,8.80
2019-04-28T06:32:23.765Z,8.90
2019-04-28T06:34:52.202Z,9.00
2019-04-28T06:37:20.661Z,9.00
2019-04-28T06:39:49.086Z,9.00
2019-04-28T06:42:17.559Z,9.00
2019-04-28T06:44:46.122Z,8.90
2019-04-28T06:47:16.789Z,9.00
2019-04-28T06:49:44.756Z,9.00
2019-04-28T06:52:13.210Z,8.90
2019-04-28T06:54:41.718Z,9.00
2019-04-28T06:57:10.163Z,8.90
2019-04-28T06:59:38.725Z,8.80
2019-04-28T07:02:07.213Z,8.80
2019-04-28T07:04:35.673Z,8.90
2019-04-28T07:07:04.194Z,8.80
2019-04-28T07:09:32.824Z,8.80
2019-04-28T07:12:01.345Z,8.90
2019-04-28T07:14:29.791Z,8.90
2019-04-28T07:16:58.270Z,8.80
2019-04-28T07:19:26.720Z,8.70
2019-04-28T07:21:56.837Z,8.90
2019-04-28T07:24:25.286Z,8.90
2019-04-28T07:26:53.789Z,9.00
2019-04-28T07:29:22.252Z,9.30
2019-04-28T07:31:50.783Z,9.40
2019-04-28T07:34:19.322Z,9.50
2019-04-28T07:36:47.743Z,9.40
2019-04-28T07:39:16.342Z,9.40
2019-04-28T07:41:44.780Z,9.60
2019-04-28T07:44:13.243Z,9.70
2019-04-28T07:46:41.692Z,9.80
2019-04-28T07:49:10.221Z,9.80
2019-04-28T07:51:40.322Z,9.80
2019-04-28T07:54:13.309Z,10.00
2019-04-28T07:56:41.834Z,10.00
2019-04-28T07:59:10.291Z,10.00
2019-04-28T08:01:39.062Z,10.10
2019-04-28T08:04:07.645Z,9.90
2019-04-28T08:06:36.084Z,9.90
2019-04-28T08:09:08.283Z,9.80
2019-04-28T08:11:37.058Z,9.80
2019-04-28T08:14:05.681Z,9.90
2019-04-28T08:16:34.403Z,10.00
2019-04-28T08:19:03.028Z,10.00
2019-04-28T08:21:31.497Z,10.10
2019-04-28T08:23:59.955Z,10.50
2019-04-28T08:26:28.463Z,10.80
2019-04-28T08:28:57.006Z,10.80
2019-04-28T08:31:32.976Z,10.80
2019-04-28T08:34:03.175Z,10.80
2019-04-28T08:36:31.799Z,11.20
2019-04-28T08:39:00.396Z,11.40
2019-04-28T08:41:29.033Z,11.80
2019-04-28T08:43:57.489Z,11.90
2019-04-28T08:46:25.964Z,11.80
2019-04-28T08:48:54.552Z,11.90
2019-04-28T08:51:23.007Z,12.00
2019-04-28T08:53:51.545Z,11.80
2019-04-28T08:56:20.075Z,11.50
2019-04-28T08:58:48.634Z,11.40
2019-04-28T09:01:17.161Z,11.30
2019-04-28T09:03:45.632Z,11.20
2019-04-28T09:06:14.187Z,11.20
2019-04-28T09:08:42.734Z,11.30
2019-04-28T09:11:11.327Z,11.40
2019-04-28T09:13:40.125Z,11.20
2019-04-28T09:16:08.675Z,11.30
2019-04-28T09:18:37.222Z,11.30
2019-04-28T09:21:05.794Z,11.30
2019-04-28T09:23:34.241Z,11.20
2019-04-28T09:26:02.949Z,11.40
2019-04-28T09:28:31.573Z,11.60
2019-04-28T09:31:00.019Z,11.30
2019-04-28T09:33:29.015Z,11.10
2019-04-28T09:35:57.492Z,10.90
2019-04-28T09:38:25.976Z,10.70
2019-04-28T09:40:54.635Z,10.50
2019-04-28T09:43:24.834Z,10.70
2019-04-28T09:45:57.426Z,11.10
2019-04-28T09:48:25.951Z,11.60
2019-04-28T09:50:54.540Z,11.90
2019-04-28T09:53:23.016Z,12.30
2019-04-28T09:55:51.460Z,12.30
2019-04-28T09:58:19.931Z,12.30
2019-04-28T10:00:48.526Z,12.10
2019-04-28T10:03:16.997Z,11.80
2019-04-28T10:05:45.770Z,11.40
2019-04-28T10:08:14.343Z,11.40
2019-04-28T10:10:42.887Z,11.70
2019-04-28T10:13:11.517Z,12.10
2019-04-28T10:15:40.108Z,12.40
2019-04-28T10:18:08.939Z,12.50
2019-04-28T10:20:37.502Z,12.40
2019-04-28T10:23:06.008Z,12.20
2019-04-28T10:25:34.594Z,12.20
2019-04-28T10:28:03.146Z,12.30
2019-04-28T10:30:31.681Z,12.40
2019-04-28T10:33:00.212Z,12.50
2019-04-28T10:35:28.711Z,12.30
2019-04-28T10:37:57.242Z,12.10
2019-04-28T10:40:35.984Z,12.00
2019-04-28T10:43:04.979Z,12.00
2019-04-28T10:45:35.452Z,12.30
2019-04-28T10:48:04.167Z,12.40
2019-04-28T10:50:32.731Z,12.90
2019-04-28T10:53:01.249Z,13.20
2019-04-28T10:55:29.738Z,13.60
2019-04-28T10:57:58.222Z,13.60
2019-04-28T11:00:28.498Z,13.50
2019-04-28T11:03:00.821Z,13.60
2019-04-28T11:05:31.008Z,13.70
2019-04-28T11:07:59.891Z,13.70
2019-04-28T11:10:28.425Z,14.00
2019-04-28T11:12:57.037Z,14.10
2019-04-28T11:15:27.344Z,14.20
2019-04-28T11:17:55.913Z,14.20
2019-04-28T11:20:25.302Z,14.30
2019-04-28T11:22:53.995Z,14.40
2019-04-28T11:25:22.582Z,14.30
2019-04-28T11:27:51.181Z,14.30
2019-04-28T11:30:19.862Z,14.30
2019-04-28T11:32:50.013Z,14.30
2019-04-28T11:35:21.751Z,14.10
2019-04-28T11:37:50.393Z,14.30
2019-04-28T11:40:19.226Z,14.20
2019-04-28T11:42:47.765Z,14.20
2019-04-28T11:45:16.516Z,14.40
2019-04-28T11:47:45.043Z,14.40
2019-04-28T11:50:14.094Z,14.70
2019-04-28T11:52:42.634Z,14.90
2019-04-28T11:55:11.886Z,15.10
2019-04-28T11:57:40.374Z,15.20
2019-04-28T12:00:11.010Z,15.30
2019-04-28T12:02:39.522Z,15.20
2019-04-28T12:05:08.194Z,15.10
2019-04-28T12:07:36.683Z,14.90
2019-04-28T12:10:09.452Z,15.00
2019-04-28T12:12:42.468Z,15.20
2019-04-28T12:15:12.703Z,15.20
2019-04-28T12:17:42.962Z,14.90
2019-04-28T12:20:13.214Z,14.50
2019-04-28T12:22:41.877Z,13.70
2019-04-28T12:25:11.142Z,12.80
2019-04-28T12:27:39.699Z,12.10
2019-04-28T12:30:08.313Z,11.80
2019-04-28T12:32:37.062Z,11.60
2019-04-28T12:35:06.560Z,11.10
2019-04-28T12:37:35.165Z,10.70
2019-04-28T12:40:04.784Z,10.30
2019-04-28T12:42:33.568Z,10.20
2019-04-28T12:45:03.328Z,10.10
2019-04-28T12:47:31.904Z,9.90
2019-04-28T12:50:02.028Z,9.80
2019-04-28T12:52:30.651Z,9.80
2019-04-28T12:55:00.427Z,9.90
2019-04-28T12:57:29.015Z,10.20
2019-04-28T13:00:11.119Z,10.70
2019-04-28T13:02:57.705Z,11.30
2019-04-28T13:05:26.261Z,11.60
2019-04-28T13:07:54.909Z,12.10
2019-04-28T13:10:23.658Z,12.40
2019-04-28T13:12:52.148Z,12.70
2019-04-28T13:15:20.671Z,12.90
2019-04-28T13:17:49.387Z,13.20
2019-04-28T13:20:17.931Z,13.50
2019-04-28T13:22:48.135Z,13.60
2019-04-28T13:25:16.822Z,13.80
2019-04-28T13:27:45.356Z,13.80
2019-04-28T13:30:14.286Z,13.90
2019-04-28T13:32:42.909Z,13.80
2019-04-28T13:35:12.011Z,14.00
2019-04-28T13:37:40.481Z,14.10
2019-04-28T13:40:22.439Z,14.10
2019-04-28T13:42:50.978Z,14.10
2019-04-28T13:45:21.350Z,14.10
2019-04-28T13:47:49.905Z,14.30
2019-04-28T13:50:23.343Z,14.70
2019-04-28T13:52:51.919Z,14.70
2019-04-28T13:55:24.874Z,14.90
2019-04-28T13:57:53.493Z,14.60
2019-04-28T14:00:26.456Z,14.60
2019-04-28T14:03:12.820Z,14.60
2019-04-28T14:05:46.162Z,14.70
2019-04-28T14:08:14.748Z,14.60
2019-04-28T14:10:43.300Z,14.20
2019-04-28T14:13:11.981Z,13.90
2019-04-28T14:15:40.650Z,14.00
2019-04-28T14:18:09.572Z,14.00
2019-04-28T14:20:38.215Z,14.20
2019-04-28T14:23:06.767Z,14.10
2019-04-28T14:25:36.648Z,14.20
2019-04-28T14:28:05.376Z,14.40
2019-04-28T14:30:33.905Z,14.70
2019-04-28T14:33:02.489Z,14.60
2019-04-28T14:35:32.634Z,14.40
2019-04-28T14:38:01.142Z,14.20
2019-04-28T14:40:29.968Z,13.90
2019-04-28T14:42:58.461Z,13.90
2019-04-28T14:45:27.009Z,13.80
2019-04-28T14:47:55.501Z,13.90
2019-04-28T14:50:24.162Z,14.20
2019-04-28T14:52:52.642Z,14.40
2019-04-28T14:55:21.422Z,14.40
2019-04-28T14:57:49.947Z,14.20
2019-04-28T15:00:20.304Z,14.20
2019-04-28T15:02:50.529Z,14.20
2019-04-28T15:05:29.696Z,14.20
2019-04-28T15:08:05.799Z,14.10
2019-04-28T15:10:42.144Z,14.00
2019-04-28T15:13:11.339Z,14.00
2019-04-28T15:15:41.392Z,14.00
2019-04-28T15:18:10.065Z,14.10
2019-04-28T15:20:38.531Z,14.20
2019-04-28T15:23:07.169Z,14.10
2019-04-28T15:25:35.610Z,13.70
2019-04-28T15:28:04.075Z,13.10
2019-04-28T15:30:32.505Z,12.60
2019-04-28T15:33:01.236Z,12.50
2019-04-28T15:35:29.670Z,12.20
2019-04-28T15:38:02.656Z,12.50
2019-04-28T15:40:31.198Z,12.60
2019-04-28T15:42:59.841Z,12.40
2019-04-28T15:45:28.413Z,12.30
2019-04-28T15:47:56.968Z,12.10
2019-04-28T15:50:25.652Z,12.10
2019-04-28T15:52:54.698Z,12.00
2019-04-28T15:55:30.687Z,12.00
2019-04-28T15:58:00.918Z,11.80
2019-04-28T16:00:29.444Z,11.80
2019-04-28T16:02:57.945Z,11.50
2019-04-28T16:05:26.464Z,11.40
2019-04-28T16:07:54.950Z,11.40
2019-04-28T16:10:23.472Z,11.30
2019-04-28T16:12:51.948Z,11.30
2019-04-28T16:15:20.515Z,11.30
2019-04-28T16:17:49.106Z,11.10
2019-04-28T16:20:17.973Z,11.10
2019-04-28T16:22:46.479Z,11.30
2019-04-28T16:25:14.979Z,11.50
2019-04-28T16:27:43.529Z,11.60
2019-04-28T16:30:12.228Z,11.70
2019-04-28T16:32:40.676Z,11.70
2019-04-28T16:35:09.249Z,11.80
2019-04-28T16:37:38.840Z,11.90
2019-04-28T16:40:09.613Z,12.00
2019-04-28T16:42:38.486Z,11.90
2019-04-28T16:45:11.810Z,11.90
2019-04-28T16:47:42.107Z,11.90
2019-04-28T16:50:10.909Z,12.00
2019-04-28T16:52:39.372Z,12.00
2019-04-28T16:55:15.586Z,11.80
2019-04-28T16:57:45.874Z,11.80
2019-04-28T17:00:16.446Z,12.00
2019-04-28T17:02:45.020Z,12.10
2019-04-28T17:05:14.014Z,11.90
2019-04-28T17:07:52.339Z,12.00
2019-04-28T17:10:14.478Z,11.90
2019-04-28T17:12:43.016Z,11.80
2019-04-28T17:15:12.054Z,11.70
2019-04-28T17:17:40.584Z,11.70
2019-04-28T17:20:09.508Z,11.70
2019-04-28T17:22:38.036Z,11.70
2019-04-28T17:25:07.344Z,11.60
2019-04-28T17:27:35.884Z,11.60
2019-04-28T17:30:08.057Z,11.60
2019-04-28T17:32:36.683Z,11.60
2019-04-28T17:35:05.903Z,11.60
2019-04-28T17:37:34.545Z,11.50
2019-04-28T17:40:04.887Z,11.30
2019-04-28T17:42:34.093Z,11.10
2019-04-28T17:45:02.689Z,11.10
2019-04-28T17:47:31.232Z,11.00
2019-04-28T17:50:00.039Z,11.00
2019-04-28T17:52:28.656Z,10.90
2019-04-28T17:54:57.700Z,11.00
2019-04-28T17:57:27.786Z,11.00
2019-04-28T17:59:57.995Z,11.20
2019-04-28T18:02:33.998Z,11.30
2019-04-28T18:05:13.332Z,11.50
2019-04-28T18:07:42.813Z,11.50
2019-04-28T18:10:11.470Z,11.60
2019-04-28T18:12:40.069Z,11.50
2019-04-28T18:15:19.804Z,11.30
2019-04-28T18:18:06.114Z,11.30
2019-04-28T18:20:36.403Z,11.10
2019-04-28T18:23:05.027Z,10.90
2019-04-28T18:25:33.620Z,10.70
2019-04-28T18:28:02.759Z,10.50
2019-04-28T18:30:33.077Z,10.40
2019-04-28T18:33:03.228Z,10.30
2019-04-28T18:35:45.411Z,10.20
2019-04-28T18:38:18.530Z,10.10
2019-04-28T18:40:57.506Z,10.00
2019-04-28T18:43:45.779Z,9.90
2019-04-28T18:46:17.322Z,9.90
2019-04-28T18:48:45.911Z,9.80
2019-04-28T18:51:14.548Z,9.90
2019-04-28T18:53:44.592Z,9.90
2019-04-28T18:56:13.855Z,9.80
2019-04-28T18:58:44.543Z,9.80
2019-04-28T19:01:14.667Z,9.70
2019-04-28T19:03:43.823Z,9.70
2019-04-28T19:06:12.347Z,9.70
2019-04-28T19:08:51.612Z,9.60
2019-04-28T19:11:24.620Z,9.50
2019-04-28T19:13:57.691Z,9.40
2019-04-28T19:16:30.445Z,9.40
2019-04-28T19:19:07.948Z,9.40
2019-04-28T19:21:37.202Z,9.40
2019-04-28T19:24:05.704Z,9.30
2019-04-28T19:26:34.228Z,9.30
2019-04-28T19:29:02.763Z,9.30
2019-04-28T19:31:31.373Z,9.30
2019-04-28T19:34:00.899Z,9.30
2019-04-28T19:36:29.600Z,9.30
2019-04-28T19:39:03.307Z,9.30
2019-04-28T19:41:28.867Z,9.30
2019-04-28T19:43:57.670Z,9.30
2019-04-28T19:46:26.345Z,9.20
2019-04-28T19:48:55.171Z,9.30
2019-04-28T19:51:31.598Z,9.30
2019-04-28T19:53:56.028Z,9.30
2019-04-28T19:56:32.740Z,9.20
2019-04-28T19:59:17.814Z,9.20
2019-04-28T20:01:47.479Z,9.20
2019-04-28T20:04:16.509Z,9.10
2019-04-28T20:06:45.800Z,9.10
2019-04-28T20:09:14.556Z,8.90
2019-04-28T20:11:43.293Z,8.90
2019-04-28T20:14:11.919Z,8.90
2019-04-28T20:16:40.555Z,8.90
2019-04-28T20:19:09.183Z,8.80
2019-04-28T20:21:37.654Z,8.70
2019-04-28T20:24:06.246Z,8.70
2019-04-28T20:26:35.000Z,8.70
2019-04-28T20:29:03.634Z,8.70
2019-04-28T20:31:33.083Z,8.70
2019-04-28T20:34:01.658Z,8.60
2019-04-28T20:36:35.030Z,8.60
2019-04-28T20:39:05.751Z,8.60
2019-04-28T20:41:34.470Z,8.60
2019-04-28T20:44:03.094Z,8.60
2019-04-28T20:46:31.790Z,8.50
2019-04-28T20:49:00.351Z,8.50
2019-04-28T20:51:28.945Z,8.50
2019-04-28T20:53:57.607Z,8.50
2019-04-28T20:56:26.233Z,8.40
2019-04-28T20:58:54.951Z,8.40
2019-04-28T21:01:23.500Z,8.40
2019-04-28T21:03:51.999Z,8.40
2019-04-28T21:06:20.683Z,8.40
2019-04-28T21:08:49.243Z,8.30
2019-04-28T21:11:17.678Z,8.30
2019-04-28T21:13:46.316Z,8.30
2019-04-28T21:16:15.033Z,8.20
2019-04-28T21:18:43.615Z,8.20
2019-04-28T21:21:12.080Z,8.20
2019-04-28T21:23:40.618Z,8.10
2019-04-28T21:26:09.065Z,8.10
2019-04-28T21:28:37.633Z,8.10
2019-04-28T21:31:06.138Z,8.10
2019-04-28T21:33:34.699Z,8.10
2019-04-28T21:36:03.146Z,8.00
2019-04-28T21:38:31.611Z,8.00
2019-04-28T21:41:00.244Z,8.00
2019-04-28T21:43:36.098Z,8.00
2019-04-28T21:46:06.334Z,8.00
2019-04-28T21:48:42.738Z,8.00
2019-04-28T21:51:11.990Z,7.90
2019-04-28T21:53:40.870Z,7.80
2019-04-28T21:56:09.405Z,7.80
2019-04-28T21:58:38.012Z,7.80
2019-04-28T22:01:07.612Z,7.70
2019-04-28T22:03:36.278Z,7.70
2019-04-28T22:06:05.196Z,7.60
2019-04-28T22:08:33.758Z,7.60
2019-04-28T22:11:02.425Z,7.50
2019-04-28T22:13:31.166Z,7.50
2019-04-28T22:15:59.651Z,7.50
2019-04-28T22:18:28.113Z,7.40
2019-04-28T22:20:56.646Z,7.40
2019-04-28T22:23:32.594Z,7.30
2019-04-28T22:26:01.106Z,7.30
2019-04-28T22:28:29.616Z,7.30
2019-04-28T22:30:58.098Z,7.30
2019-04-28T22:33:26.714Z,7.20
2019-04-28T22:35:55.191Z,7.20
2019-04-28T22:38:23.643Z,7.20
2019-04-28T22:40:52.112Z,7.20
2019-04-28T22:43:20.713Z,7.20
2019-04-28T22:45:49.197Z,7.20
2019-04-28T22:48:22.015Z,7.10
2019-04-28T22:50:50.928Z,7.10
2019-04-28T22:53:21.092Z,7.00
2019-04-28T22:55:54.365Z,7.00
2019-04-28T22:58:27.585Z,6.80
2019-04-28T23:00:57.810Z,6.70
2019-04-28T23:03:31.178Z,6.50
2019-04-28T23:05:59.711Z,6.40
2019-04-28T23:08:28.166Z,6.30
2019-04-28T23:10:56.695Z,6.30
2019-04-28T23:13:25.130Z,6.30
2019-04-28T23:15:53.757Z,6.40
2019-04-28T23:18:22.670Z,6.30
2019-04-28T23:20:56.764Z,6.30
2019-04-28T23:23:25.213Z,6.30
2019-04-28T23:25:53.739Z,6.20
2019-04-28T23:28:22.264Z,6.20
2019-04-28T23:30:50.797Z,6.20
2019-04-28T23:33:19.453Z,6.20
2019-04-28T23:35:47.959Z,6.30
2019-04-28T23:38:16.489Z,6.30
2019-04-28T23:40:47.136Z,6.20
2019-04-28T23:43:17.517Z,6.30
2019-04-28T23:45:45.972Z,6.30
2019-04-28T23:48:14.458Z,6.30
2019-04-28T23:50:44.593Z,6.30
2019-04-28T23:53:14.810Z,6.40
2019-04-28T23:55:43.439Z,6.40
2019-04-28T23:58:11.914Z,6.40
